Flight Track Log - Related Links

Times and Time Zones

All times are in EDT time to prevent confusion due to time zone crossing. See the BJS439 flight status page for this flight to view local times or setup timezone preferences in your user account.

Time Position Orientation Groundspeed Altitude Reporting Facility
EDT Latitude Longitude Course Direction KTS MPH feet Rate Location/Type
Sat 07:04:22 AM 36.8992 -76.1997 44° Northeast 159 183 600  Level Washington Center
Sat 07:05:27 AM 36.9414 -76.1481 44° Northeast 182 209 3,100 2,016 Climbing Washington Center
Sat 07:06:27 AM 36.9767 -76.1614 343° North 215 247 4,800 2,400 Climbing Washington Center
Sat 07:07:27 AM 36.9617 -76.2286 254° West 212 244 7,900 3,350 Climbing Washington Center
Sat 07:08:27 AM 36.9364 -76.3039 247° West 224 258 11,500 3,250 Climbing Washington Center
Sat 07:09:27 AM 36.9086 -76.3867 247° West 241 277 14,400 2,650 Climbing Washington Center
Sat 07:10:27 AM 36.8831 -76.4747 250° West 265 305 16,800 2,500 Climbing Washington Center
Sat 07:11:27 AM 36.8508 -76.5706 247° West 280 322 19,400 2,400 Climbing Washington Center
Sat 07:12:27 AM 36.8208 -76.6714 250° West 303 349 21,600 1,300 Climbing Washington Center
Sat 07:13:27 AM 36.7908 -76.7667 249° West 308 354 22,000 200 Climbing Washington Center
Sat 07:14:27 AM 36.7606 -76.8650 249° West 308 354 22,000  Level Washington Center
Sat 07:15:27 AM 36.7303 -76.9628 249° West 308 354 22,000  Level Washington Center
Sat 07:16:27 AM 36.6936 -77.0581 244° Southwest 308 354 22,000  Level Washington Center
Sat 07:17:27 AM 36.6508 -77.1453 239° Southwest 308 354 22,000  Level Washington Center
Sat 07:18:27 AM 36.6100 -77.2297 239° Southwest 303 349 22,000  Level Washington Center
Sat 07:19:27 AM 36.5733 -77.3169 242° Southwest 297 342 22,000  Level Washington Center
Sat 07:20:27 AM 36.5347 -77.4014 240° Southwest 290 334 22,000  Level Washington Center
Sat 07:21:27 AM 36.4936 -77.4858 239° Southwest 290 334 22,000  Level Washington Center
Sat 07:22:27 AM 36.4528 -77.5725 240° Southwest 290 334 22,000 -550 Level Washington Center
Sat 07:23:27 AM 36.4158 -77.6542 241° Southwest 285 328 20,900 -1,550 Descending Washington Center
Sat 07:24:27 AM 36.3767 -77.7383 240° Southwest 285 328 18,900 -1,950 Descending Washington Center
Sat 07:25:27 AM 36.3378 -77.8222 240° Southwest 285 328 17,000 -1,950 Descending Washington Center
Sat 07:26:27 AM 36.2986 -77.9036 239° Southwest 285 328 15,000 -2,147 Descending Washington Center
Sat 07:27:02 AM 36.2683 -77.9594 236° Southwest 282 325 13,600 -2,000 Descending Washington Center
Sat 07:27:27 AM 36.2594 -77.9825 244° Southwest 285 328 13,000 -1,574 Descending Washington Center
Sat 07:28:03 AM 36.2314 -78.0383 238° Southwest 265 305 12,000 -1,400 Descending Washington Center
Sat 07:28:27 AM 36.2203 -78.0661 244° Southwest 285 328 11,600 -1,400 Descending Washington Center
Sat 07:29:03 AM 36.1919 -78.1194 237° Southwest 268 308 10,600 -1,500 Descending Washington Center
Sat 07:29:27 AM 36.1789 -78.1525 244° Southwest 285 328 10,100 -590 Descending Washington Center
Sat 07:30:04 AM 36.1550 -78.1953 235° Southwest 267 307 10,000 -100 Descending Washington Center
Sat 07:30:27 AM 36.1417 -78.2308 245° Southwest 280 322 10,000  Level Washington Center
Sat 07:31:04 AM 36.1175 -78.2789 238° Southwest 272 313 10,000  Level Washington Center
Sat 07:31:27 AM 36.1022 -78.3144 242° Southwest 274 315 10,000  Level Washington Center
Sat 07:32:05 AM 36.0761 -78.3650 237° Southwest 274 315 10,000  Level Washington Center
Sat 07:32:27 AM 36.0628 -78.3928 239° Southwest 274 315 10,000  Level Washington Center
Sat 07:33:12 AM 36.0322 -78.4533 238° Southwest 275 316 10,000  Level Washington Center
Sat 07:33:27 AM 36.0297 -78.4661 256° West 274 315 10,000 -500 Level Washington Center
Sat 07:34:12 AM 35.9928 -78.5314 235° Southwest 264 304 9,500 -700 Descending Washington Center
Sat 07:34:27 AM 35.9883 -78.5389 234° Southwest 274 315 9,300 -1,082 Descending Washington Center
Sat 07:35:13 AM 35.9456 -78.5783 217° Southwest 212 244 8,400 -1,358 Descending Washington Center
Sat 07:36:13 AM 35.9028 -78.6256 222° Southwest 203 234 6,900 -1,190 Descending Washington Center
Sat 07:37:14 AM 35.8517 -78.6672 213° Southwest 211 243 6,000 -443 Descending Washington Center
Sat 07:38:15 AM 35.8106 -78.7194 226° Southwest 209 241 6,000 -992 Level Washington Center
Sat 07:39:15 AM 35.7697 -78.7689 225° Southwest 216 249 4,000 -1,488 Descending Washington Center
Sat 07:40:16 AM 35.7533 -78.8322 252° West 203 234 3,000 -776 Descending Washington Center
Sat 07:41:11 AM 35.7864 -78.8464 341° North 158 182 2,500 -835 Descending Washington Center
Sat 07:42:11 AM 35.8242 -78.8353 13° North 127 146 1,400 -893 Descending Washington Center
Sat 07:43:12 AM 35.8542 -78.8108 33° Northeast 123 142 700 -689 Descending Washington Center
Sat 07:45:00 AM 35.8667 -78.7833 349° North  Level FlightAware Approximate

Login

Don't have an account? Register now (free) for customized features, flight alerts, and more!